createdAt,value
2018-08-19T00:00:02.946Z,0
2018-08-19T00:05:03.138Z,0
2018-08-19T00:10:02.631Z,0
2018-08-19T00:15:03.085Z,0
2018-08-19T00:20:02.474Z,0
2018-08-19T00:25:02.921Z,0
2018-08-19T00:30:03.336Z,0
2018-08-19T00:35:02.859Z,0
2018-08-19T00:40:02.388Z,0
2018-08-19T00:45:02.786Z,0
2018-08-19T00:50:03.189Z,0
2018-08-19T00:55:02.588Z,0
2018-08-19T01:00:02.993Z,0
2018-08-19T01:05:02.409Z,0
2018-08-19T01:10:03.182Z,0
2018-08-19T01:15:02.546Z,0
2018-08-19T01:20:03.164Z,0
2018-08-19T01:25:02.560Z,0
2018-08-19T01:30:03.146Z,0
2018-08-19T01:35:02.587Z,0
2018-08-19T01:40:03.045Z,0
2018-08-19T01:45:02.525Z,0
2018-08-19T01:50:02.937Z,0
2018-08-19T01:55:02.399Z,0
2018-08-19T02:00:02.874Z,0
2018-08-19T02:05:03.311Z,0
2018-08-19T02:10:02.742Z,0
2018-08-19T02:15:03.212Z,0
2018-08-19T02:20:02.676Z,0
2018-08-19T02:25:03.109Z,0
2018-08-19T02:30:02.560Z,0
2018-08-19T02:35:03.224Z,0
2018-08-19T02:40:02.695Z,0
2018-08-19T02:45:03.143Z,0
2018-08-19T02:50:02.634Z,0
2018-08-19T02:55:03.240Z,0
2018-08-19T03:00:02.713Z,0
2018-08-19T03:05:03.193Z,0
2018-08-19T03:10:02.686Z,0
2018-08-19T03:15:03.279Z,0
2018-08-19T03:20:03.071Z,0
2018-08-19T03:25:02.592Z,0
2018-08-19T03:30:03.003Z,0
2018-08-19T03:35:02.407Z,0
2018-08-19T03:40:02.856Z,0
2018-08-19T03:45:03.299Z,0
2018-08-19T03:50:02.753Z,0
2018-08-19T03:55:03.236Z,1
2018-08-19T04:00:02.643Z,2
2018-08-19T04:05:03.040Z,6
2018-08-19T04:10:02.523Z,15
2018-08-19T04:15:03.009Z,28
2018-08-19T04:20:02.483Z,39
2018-08-19T04:25:02.954Z,52
2018-08-19T04:30:03.273Z,97
2018-08-19T04:35:02.708Z,147
2018-08-19T04:40:03.179Z,273
2018-08-19T04:45:02.639Z,383
2018-08-19T04:50:02.845Z,503
2018-08-19T04:55:03.253Z,625
2018-08-19T05:00:02.766Z,707
2018-08-19T05:05:03.237Z,930
2018-08-19T05:10:02.665Z,1000
2018-08-19T05:15:03.042Z,1000
2018-08-19T05:20:02.423Z,1000
2018-08-19T05:25:02.860Z,1000
2018-08-19T05:30:02.354Z,1000
2018-08-19T05:35:02.849Z,1000
2018-08-19T05:40:03.500Z,1000
2018-08-19T05:45:02.931Z,1000
2018-08-19T05:50:03.342Z,1000
2018-08-19T05:55:02.804Z,1000
2018-08-19T06:00:03.290Z,1000
2018-08-19T06:05:02.771Z,2000
2018-08-19T06:10:03.211Z,2000
2018-08-19T06:15:02.680Z,2000
2018-08-19T06:20:03.144Z,2000
2018-08-19T06:25:02.526Z,2000
2018-08-19T06:30:03.000Z,2000
2018-08-19T06:35:03.030Z,2000
2018-08-19T06:40:02.949Z,2000
2018-08-19T06:45:02.419Z,2000
2018-08-19T06:50:02.837Z,2000
2018-08-19T06:55:03.296Z,3000
2018-08-19T07:00:03.124Z,3000
2018-08-19T07:05:02.781Z,3000
2018-08-19T07:10:03.324Z,3000
2018-08-19T07:15:02.764Z,3000
2018-08-19T07:20:03.303Z,3000
2018-08-19T07:25:02.856Z,3000
2018-08-19T07:30:03.447Z,4000
2018-08-19T07:35:02.809Z,3000
2018-08-19T07:40:03.257Z,4000
2018-08-19T07:45:02.674Z,4000
2018-08-19T07:50:03.071Z,5000
2018-08-19T07:55:02.496Z,5000
2018-08-19T08:00:02.991Z,17000
2018-08-19T08:05:02.506Z,30000
2018-08-19T08:10:03.037Z,32000
2018-08-19T08:15:02.566Z,17000
2018-08-19T08:20:03.015Z,8000
2018-08-19T08:25:02.546Z,12000
2018-08-19T08:30:03.290Z,10000
2018-08-19T08:35:02.770Z,6000
2018-08-19T08:40:03.261Z,7000
2018-08-19T08:45:02.736Z,28000
2018-08-19T08:50:03.253Z,9000
2018-08-19T08:55:02.668Z,20000
2018-08-19T09:00:03.090Z,12000
2018-08-19T09:05:02.546Z,13000
2018-08-19T09:10:03.074Z,10000
2018-08-19T09:15:02.492Z,9000
2018-08-19T09:20:02.987Z,41000
2018-08-19T09:25:02.415Z,10000
2018-08-19T09:30:02.816Z,8000
2018-08-19T09:35:03.277Z,7000
2018-08-19T09:40:02.780Z,25000
2018-08-19T09:45:03.272Z,25000
2018-08-19T09:50:02.695Z,19000
2018-08-19T09:55:03.120Z,19000
2018-08-19T10:00:02.520Z,16000
2018-08-19T10:05:02.990Z,14000
2018-08-19T10:10:02.443Z,13000
2018-08-19T10:15:02.927Z,9000
2018-08-19T10:20:02.504Z,11000
2018-08-19T10:25:02.936Z,12000
2018-08-19T10:30:02.379Z,12000
2018-08-19T10:35:02.813Z,11000
2018-08-19T10:40:03.458Z,22000
2018-08-19T10:45:02.914Z,55000
2018-08-19T10:50:02.407Z,54000
2018-08-19T10:55:02.885Z,52000
2018-08-19T11:00:02.501Z,55000
2018-08-19T11:05:02.748Z,22000
2018-08-19T11:10:03.248Z,33000
2018-08-19T11:15:02.636Z,27000
2018-08-19T11:20:03.045Z,26000
2018-08-19T11:25:02.458Z,14000
2018-08-19T11:30:02.911Z,26000
2018-08-19T11:35:02.409Z,24000
2018-08-19T11:40:02.919Z,54000
2018-08-19T11:45:02.390Z,21000
2018-08-19T11:50:02.835Z,34000
2018-08-19T11:55:03.297Z,50000
2018-08-19T12:00:02.774Z,24000
2018-08-19T12:05:03.273Z,16000
2018-08-19T12:10:02.731Z,13000
2018-08-19T12:15:03.165Z,37000
2018-08-19T12:20:02.668Z,46000
2018-08-19T12:25:03.177Z,50000
2018-08-19T12:30:02.695Z,44000
2018-08-19T12:35:03.115Z,45000
2018-08-19T12:40:02.642Z,40000
2018-08-19T12:45:03.209Z,38000
2018-08-19T12:50:02.666Z,33000
2018-08-19T12:55:03.349Z,35000
2018-08-19T13:00:02.772Z,35000
2018-08-19T13:05:03.521Z,37000
2018-08-19T13:10:03.026Z,37000
2018-08-19T13:15:02.462Z,37000
2018-08-19T13:20:02.958Z,35000
2018-08-19T13:25:02.375Z,34000
2018-08-19T13:30:02.857Z,33000
2018-08-19T13:35:02.353Z,32000
2018-08-19T13:40:02.882Z,32000
2018-08-19T13:45:03.304Z,32000
2018-08-19T13:50:02.768Z,30000
2018-08-19T13:55:03.215Z,31000
2018-08-19T14:00:02.676Z,30000
2018-08-19T14:05:03.118Z,28000
2018-08-19T14:10:02.580Z,28000
2018-08-19T14:15:02.999Z,27000
2018-08-19T14:20:02.354Z,26000
2018-08-19T14:25:02.822Z,25000
2018-08-19T14:30:03.491Z,25000
2018-08-19T14:35:02.593Z,25000
2018-08-19T14:40:03.320Z,24000
2018-08-19T14:45:03.136Z,23000
2018-08-19T14:50:02.590Z,22000
2018-08-19T14:55:03.029Z,21000
2018-08-19T15:00:02.505Z,21000
2018-08-19T15:05:02.998Z,20000
2018-08-19T15:10:02.578Z,20000
2018-08-19T15:15:02.358Z,19000
2018-08-19T15:20:02.988Z,19000
2018-08-19T15:25:02.368Z,19000
2018-08-19T15:30:02.825Z,19000
2018-08-19T15:35:03.238Z,18000
2018-08-19T15:40:02.699Z,18000
2018-08-19T15:45:03.101Z,17000
2018-08-19T15:50:02.543Z,18000
2018-08-19T15:55:03.013Z,17000
2018-08-19T16:00:02.419Z,16000
2018-08-19T16:05:02.821Z,16000
2018-08-19T16:10:03.284Z,15000
2018-08-19T16:15:02.695Z,14000
2018-08-19T16:20:03.192Z,13000
2018-08-19T16:25:02.593Z,13000
2018-08-19T16:30:03.070Z,12000
2018-08-19T16:35:02.470Z,11000
2018-08-19T16:40:02.936Z,11000
2018-08-19T16:45:02.455Z,10000
2018-08-19T16:50:02.916Z,11000
2018-08-19T16:55:02.469Z,11000
2018-08-19T17:00:02.923Z,12000
2018-08-19T17:05:02.380Z,11000
2018-08-19T17:10:03.097Z,10000
2018-08-19T17:15:02.809Z,5000
2018-08-19T17:20:03.234Z,2000
2018-08-19T17:25:02.661Z,8000
2018-08-19T17:30:03.215Z,6000
2018-08-19T17:35:02.645Z,6000
2018-08-19T17:40:03.115Z,1000
2018-08-19T17:45:02.553Z,1000
2018-08-19T17:50:02.955Z,1000
2018-08-19T17:55:02.411Z,1000
2018-08-19T18:00:03.235Z,1000
2018-08-19T18:05:03.174Z,958
2018-08-19T18:10:02.683Z,693
2018-08-19T18:15:03.150Z,643
2018-08-19T18:20:02.893Z,550
2018-08-19T18:25:02.453Z,420
2018-08-19T18:30:02.889Z,316
2018-08-19T18:35:02.389Z,274
2018-08-19T18:40:03.085Z,183
2018-08-19T18:45:02.575Z,82
2018-08-19T18:50:03.047Z,68
2018-08-19T18:55:02.467Z,54
2018-08-19T19:00:02.908Z,45
2018-08-19T19:05:03.290Z,30
2018-08-19T19:10:02.773Z,17
2018-08-19T19:15:03.192Z,13
2018-08-19T19:20:02.734Z,3
2018-08-19T19:25:02.743Z,1
2018-08-19T19:30:03.356Z,0
2018-08-19T19:35:02.792Z,0
2018-08-19T19:40:03.214Z,0
2018-08-19T19:45:02.746Z,0
2018-08-19T19:50:03.409Z,0
2018-08-19T19:55:03.209Z,0
2018-08-19T20:00:03.152Z,0
2018-08-19T20:05:02.586Z,0
2018-08-19T20:10:03.081Z,0
2018-08-19T20:15:02.539Z,0
2018-08-19T20:20:03.053Z,0
2018-08-19T20:25:02.499Z,0
2018-08-19T20:30:02.934Z,0
2018-08-19T20:35:02.430Z,0
2018-08-19T20:40:02.911Z,0
2018-08-19T20:45:03.341Z,0
2018-08-19T20:50:02.810Z,0
2018-08-19T20:55:02.526Z,0
2018-08-19T21:00:03.197Z,0
2018-08-19T21:05:03.280Z,0
2018-08-19T21:10:02.789Z,0
2018-08-19T21:15:03.271Z,0
2018-08-19T21:20:02.774Z,0
2018-08-19T21:25:03.240Z,0
2018-08-19T21:30:03.400Z,0
2018-08-19T21:35:02.444Z,0
2018-08-19T21:40:02.987Z,0
2018-08-19T21:45:02.646Z,0
2018-08-19T21:50:03.093Z,0
2018-08-19T21:55:02.492Z,0
2018-08-19T22:00:02.880Z,0
2018-08-19T22:05:03.261Z,0
2018-08-19T22:10:02.716Z,0
2018-08-19T22:15:03.187Z,0
2018-08-19T22:20:02.626Z,0
2018-08-19T22:25:03.087Z,0
2018-08-19T22:30:02.522Z,0
2018-08-19T22:35:02.939Z,0
2018-08-19T22:40:02.433Z,0
2018-08-19T22:45:03.017Z,0
2018-08-19T22:50:02.362Z,0
2018-08-19T22:55:02.823Z,0
2018-08-19T23:00:03.280Z,0
2018-08-19T23:05:03.266Z,0
2018-08-19T23:10:02.791Z,0
2018-08-19T23:15:03.173Z,0
2018-08-19T23:20:02.586Z,0
2018-08-19T23:25:02.985Z,0
2018-08-19T23:30:02.377Z,0
2018-08-19T23:35:02.799Z,0
2018-08-19T23:40:03.242Z,0
2018-08-19T23:45:02.691Z,0
2018-08-19T23:50:03.524Z,0
2018-08-19T23:55:02.907Z,0
